Grafton, Virginia
Current Conditions -  °F | °C
As of 9:54 PM on Thursday 27 Nov 2014 (Local Time) from KPHF Reporting Station
Overcast Overcast  
Wind Chill: 37°   Ceiling: 6500
Heat Index: 41°   Visibility: 9mi
Dew Point: 35°   Wind: 6mph
Humidity: 79%   Direction: 310°NW
Pressure: 30.18"   Gusts: NA
Location:  37.1781°N, 76.4669°W
Report Text: KPHF 280254Z AUTO 31005KT 9SM OVC065 05/02 A3018 RMK AO2 RAB32E38 SLP220 P0000 60000 T00500017 51018 TSNO
Loading
Personal Weather Stations






























Interactive Weather Map New forecast layout! Learn more

10-Day Weather Forecast

Advertisements
Track Severe Weather on mobile